Time;durP1;ratioP1;P1;durP2;ratioP2;P2;SDS_P1;SDS_P2;PMS_P1;PMS_P2;Temp;Humidity;BMP_temperature;BMP_pressure;BME280_temperature;BME280_humidity;BME280_pressure;Samples;Min_cycle;Max_cycle;Signal;HPM_P1;HPM_P2
2021/03/27 00:01:06;;;;;;;14.02;9.70;;;10.80;99.90;;;;;;5032619;28;20040;-71
2021/03/27 00:03:59;;;;;;;14.57;8.60;;;10.70;99.90;;;;;;5032087;28;20025;-70
2021/03/27 00:06:52;;;;;;;11.02;7.63;;;10.50;99.90;;;;;;5032834;28;20124;-71
2021/03/27 00:09:49;;;;;;;12.85;8.20;;;10.40;99.90;;;;;;5032445;28;20033;-72
2021/03/27 00:12:36;;;;;;;13.10;8.63;;;10.50;99.90;;;;;;5033261;28;20504;-72
2021/03/27 00:16:00;;;;;;;15.02;8.40;;;10.40;99.90;;;;;;5033941;28;20032;-71
2021/03/27 00:18:37;;;;;;;12.80;8.90;;;10.30;99.90;;;;;;4934148;29;20032;-72
2021/03/27 00:21:05;;;;;;;11.02;8.65;;;10.30;99.90;;;;;;5020932;28;20033;-72
2021/03/27 00:23:31;;;;;;;10.50;6.70;;;10.20;99.90;;;;;;5033137;28;20341;-72
2021/03/27 00:26:08;;;;;;;13.02;7.10;;;10.20;99.90;;;;;;5032628;28;20040;-71
2021/03/27 00:28:56;;;;;;;12.93;7.05;;;10.20;99.90;;;;;;5032277;28;20415;-72
2021/03/27 00:31:31;;;;;;;10.15;6.80;;;10.20;99.90;;;;;;5032579;28;20121;-71
2021/03/27 00:34:04;;;;;;;8.73;6.82;;;10.20;99.90;;;;;;5031392;28;20025;-72
2021/03/27 00:36:39;;;;;;;9.82;6.60;;;10.10;99.90;;;;;;5032331;28;20074;-72
2021/03/27 00:39:25;;;;;;;7.55;6.30;;;10.10;99.90;;;;;;5032141;28;20460;-70
2021/03/27 00:42:17;;;;;;;7.38;6.50;;;10.00;99.90;;;;;;5033460;28;20033;-71
2021/03/27 00:44:50;;;;;;;11.00;6.03;;;10.10;99.90;;;;;;5032797;28;20017;-71
2021/03/27 00:47:19;;;;;;;8.30;5.97;;;10.10;99.90;;;;;;5032646;28;20083;-72
2021/03/27 00:49:55;;;;;;;7.22;6.35;;;9.90;99.90;;;;;;5032005;28;20021;-71
2021/03/27 00:52:23;;;;;;;8.07;5.88;;;9.90;99.90;;;;;;5032120;28;20033;-71
2021/03/27 00:55:11;;;;;;;8.43;6.15;;;9.90;99.90;;;;;;5031477;28;20022;-72
2021/03/27 00:57:45;;;;;;;9.38;7.03;;;9.80;99.90;;;;;;5032031;28;20021;-71
2021/03/27 01:00:26;;;;;;;7.45;6.10;;;9.80;99.90;;;;;;5034575;28;20084;-72
2021/03/27 01:02:58;;;;;;;9.38;6.53;;;9.80;99.90;;;;;;5051448;28;20155;-72
2021/03/27 01:05:28;;;;;;;10.10;6.90;;;9.70;99.90;;;;;;5052006;28;20471;-71
2021/03/27 01:07:56;;;;;;;8.38;6.22;;;9.70;99.90;;;;;;5052321;28;20032;-70
2021/03/27 01:10:37;;;;;;;11.07;6.82;;;9.70;99.90;;;;;;5043936;28;20029;-72
2021/03/27 01:13:07;;;;;;;9.40;6.55;;;9.70;99.90;;;;;;5030798;28;20429;-72
2021/03/27 01:15:37;;;;;;;9.75;6.40;;;9.70;99.90;;;;;;5013386;28;20025;-70
2021/03/27 01:18:08;;;;;;;12.05;6.72;;;9.70;99.90;;;;;;5031767;28;20022;-72
2021/03/27 01:20:39;;;;;;;10.15;6.75;;;9.80;99.90;;;;;;5032786;28;20026;-73
2021/03/27 01:23:08;;;;;;;8.82;6.53;;;9.80;99.90;;;;;;5033282;28;20018;-73
2021/03/27 01:25:36;;;;;;;8.95;7.03;;;9.80;99.90;;;;;;5033520;28;20750;-73
2021/03/27 01:28:20;;;;;;;9.18;6.15;;;9.80;99.90;;;;;;5033077;28;20044;-72
2021/03/27 01:31:30;;;;;;;11.68;6.38;;;9.70;99.90;;;;;;5032955;28;20032;-73
2021/03/27 01:34:10;;;;;;;7.72;5.90;;;9.90;99.90;;;;;;4969790;28;20494;-71
2021/03/27 01:36:56;;;;;;;7.32;5.55;;;9.80;99.90;;;;;;5028840;28;20029;-73
2021/03/27 01:39:30;;;;;;;7.05;5.45;;;9.80;99.90;;;;;;5031213;28;20040;-72
2021/03/27 01:42:07;;;;;;;9.10;5.60;;;9.90;99.90;;;;;;5031296;28;20498;-73
2021/03/27 01:45:00;;;;;;;6.32;4.07;;;9.90;99.90;;;;;;5013454;28;20395;-72
2021/03/27 01:47:59;;;;;;;6.32;4.82;;;9.80;99.90;;;;;;5031550;28;20022;-72
2021/03/27 01:50:39;;;;;;;6.93;5.43;;;9.70;99.90;;;;;;5031140;28;20021;-71
2021/03/27 01:53:17;;;;;;;6.82;5.40;;;9.70;99.90;;;;;;5030656;28;20032;-71
2021/03/27 01:55:54;;;;;;;7.45;5.30;;;9.70;99.90;;;;;;5014353;28;20442;-71
2021/03/27 01:58:29;;;;;;;8.27;5.20;;;9.70;99.90;;;;;;5033070;28;20022;-73
2021/03/27 02:01:35;;;;;;;6.70;5.07;;;9.70;99.90;;;;;;5033315;28;20033;-73
2021/03/27 02:04:05;;;;;;;7.78;5.93;;;9.70;99.90;;;;;;5024304;28;20037;-72
2021/03/27 02:06:41;;;;;;;8.23;5.90;;;9.70;99.90;;;;;;5016478;28;20057;-72
2021/03/27 02:09:23;;;;;;;7.80;5.90;;;9.70;99.90;;;;;;5035766;28;20040;-73
2021/03/27 02:12:10;;;;;;;8.68;5.55;;;9.70;99.90;;;;;;5032273;28;20032;-71
2021/03/27 02:14:55;;;;;;;7.30;5.60;;;9.70;99.90;;;;;;5032366;28;20037;-72
2021/03/27 02:17:44;;;;;;;9.52;6.22;;;9.80;99.90;;;;;;5035385;28;20026;-72
2021/03/27 02:20:28;;;;;;;6.95;6.25;;;9.80;99.90;;;;;;5024265;28;20051;-72
2021/03/27 02:23:16;;;;;;;11.15;6.05;;;9.80;99.90;;;;;;5040610;28;20026;-71
2021/03/27 02:25:51;;;;;;;7.63;5.88;;;9.80;99.90;;;;;;5039356;28;20033;-73
2021/03/27 02:28:43;;;;;;;7.80;6.22;;;9.70;99.90;;;;;;5037340;28;20025;-73
2021/03/27 02:31:15;;;;;;;8.80;6.97;;;9.60;99.90;;;;;;5016285;28;20055;-71
2021/03/27 02:33:58;;;;;;;9.68;7.22;;;9.60;99.90;;;;;;5014972;28;20440;-71
2021/03/27 02:36:51;;;;;;;9.60;8.05;;;9.60;99.90;;;;;;5018157;28;20034;-72
2021/03/27 02:39:22;;;;;;;11.43;7.90;;;9.60;99.90;;;;;;5019438;28;20025;-71
2021/03/27 02:42:12;;;;;;;10.90;8.85;;;9.60;99.90;;;;;;5019420;28;20048;-72
2021/03/27 02:44:47;;;;;;;8.85;6.50;;;9.60;99.90;;;;;;5017536;28;20022;-71
2021/03/27 02:47:42;;;;;;;8.88;6.25;;;9.40;99.90;;;;;;5017588;28;20101;-73
2021/03/27 02:50:29;;;;;;;11.80;7.45;;;9.30;99.90;;;;;;5014523;28;20480;-72
2021/03/27 02:53:07;;;;;;;10.25;7.32;;;9.30;99.90;;;;;;5014165;28;20084;-71
2021/03/27 02:55:49;;;;;;;11.55;6.43;;;9.20;99.90;;;;;;5014919;28;20113;-72
2021/03/27 02:58:32;;;;;;;8.07;5.93;;;9.20;99.90;;;;;;5014849;28;20026;-72
2021/03/27 03:01:19;;;;;;;8.10;5.78;;;9.10;99.90;;;;;;5014589;28;20260;-71
2021/03/27 03:04:17;;;;;;;6.63;5.13;;;9.20;99.90;;;;;;5013844;28;20046;-71
2021/03/27 03:07:02;;;;;;;6.93;4.88;;;9.20;99.90;;;;;;5006991;28;20037;-71
2021/03/27 03:09:37;;;;;;;4.57;3.88;;;9.20;99.90;;;;;;5034128;28;20022;-73
2021/03/27 03:12:31;;;;;;;4.50;3.67;;;9.10;99.90;;;;;;5034191;28;20037;-73
2021/03/27 03:15:27;;;;;;;4.95;3.60;;;9.20;99.90;;;;;;5033169;28;20116;-72
2021/03/27 03:18:13;;;;;;;5.03;3.40;;;9.20;99.90;;;;;;5016059;28;20107;-71
2021/03/27 03:20:47;;;;;;;6.22;3.35;;;9.10;99.90;;;;;;5033650;28;20620;-71
2021/03/27 03:23:28;;;;;;;5.10;3.20;;;9.20;99.90;;;;;;5015094;28;20056;-70
2021/03/27 03:26:05;;;;;;;3.25;2.38;;;9.20;99.90;;;;;;5033325;28;20079;-71
2021/03/27 03:28:45;;;;;;;3.20;2.85;;;9.20;99.90;;;;;;5032590;28;20156;-77
2021/03/27 03:31:48;;;;;;;3.03;2.30;;;9.10;99.90;;;;;;5013816;28;20173;-73
2021/03/27 03:34:43;;;;;;;4.07;2.60;;;9.00;99.90;;;;;;5013967;28;20105;-71
2021/03/27 03:37:27;;;;;;;3.33;2.45;;;9.00;99.90;;;;;;5014832;28;20652;-72
2021/03/27 03:40:19;;;;;;;3.22;2.63;;;9.10;99.90;;;;;;4995756;28;20026;-71
2021/03/27 03:43:15;;;;;;;3.05;2.63;;;9.10;99.90;;;;;;5012947;28;20018;-72
2021/03/27 03:45:58;;;;;;;4.50;2.80;;;9.10;99.90;;;;;;5013561;28;20054;-71
2021/03/27 03:49:14;;;;;;;5.25;3.03;;;9.00;99.90;;;;;;5013319;28;20030;-73
2021/03/27 03:51:46;;;;;;;2.80;2.60;;;8.90;99.90;;;;;;4962733;28;20061;-71
2021/03/27 03:54:37;;;;;;;3.40;2.83;;;9.00;99.90;;;;;;5012341;28;20286;-71
2021/03/27 03:57:21;;;;;;;5.00;2.10;;;9.00;99.90;;;;;;5013280;28;20036;-70
2021/03/27 03:59:55;;;;;;;1.95;1.30;;;8.80;99.90;;;;;;5023751;28;20108;-70
2021/03/27 04:02:32;;;;;;;1.67;1.40;;;8.40;99.90;;;;;;5034063;28;20021;-71
2021/03/27 04:05:13;;;;;;;1.98;1.10;;;8.00;99.90;;;;;;5033119;28;20017;-72
2021/03/27 04:08:09;;;;;;;2.83;1.20;;;7.80;99.90;;;;;;5033299;28;20029;-72
2021/03/27 04:10:38;;;;;;;2.28;1.10;;;7.70;99.90;;;;;;5034256;28;20136;-72
2021/03/27 04:13:27;;;;;;;0.68;0.68;;;7.50;99.90;;;;;;5037933;28;20044;-72
2021/03/27 04:15:54;;;;;;;0.90;0.77;;;7.50;99.90;;;;;;5032066;28;20037;-70
2021/03/27 04:18:39;;;;;;;1.10;0.70;;;7.40;99.90;;;;;;5042646;28;20063;-72
2021/03/27 04:21:08;;;;;;;0.60;0.60;;;7.30;99.90;;;;;;5043742;28;20029;-73
2021/03/27 04:23:37;;;;;;;1.15;0.63;;;7.20;99.90;;;;;;5042141;28;20026;-72
2021/03/27 04:26:18;;;;;;;1.45;0.98;;;7.20;99.90;;;;;;5033448;28;20034;-71
2021/03/27 04:29:23;;;;;;;2.47;0.77;;;7.30;99.90;;;;;;5032953;28;20025;-71
2021/03/27 04:32:10;;;;;;;0.70;0.70;;;7.20;99.90;;;;;;5033456;28;20026;-72
2021/03/27 04:34:43;;;;;;;1.30;0.70;;;7.20;99.90;;;;;;5031234;28;20503;-72
2021/03/27 04:37:18;;;;;;;16.98;1.40;;;7.20;99.90;;;;;;5015359;28;20387;-70
2021/03/27 04:40:03;;;;;;;2.38;1.52;;;7.30;99.90;;;;;;5032363;28;20028;-71
2021/03/27 04:42:54;;;;;;;0.80;0.80;;;7.40;99.90;;;;;;5032918;28;20104;-71
2021/03/27 04:45:28;;;;;;;0.80;0.80;;;7.40;99.90;;;;;;5032607;28;20026;-71
2021/03/27 04:48:11;;;;;;;1.50;0.77;;;7.30;99.90;;;;;;5032550;28;20025;-71
2021/03/27 04:50:50;;;;;;;1.63;0.60;;;7.30;99.90;;;;;;5032000;28;20030;-71
2021/03/27 04:53:29;;;;;;;0.90;0.80;;;7.30;99.90;;;;;;5032362;28;20134;-72
2021/03/27 04:56:22;;;;;;;1.30;0.90;;;7.30;99.90;;;;;;5032504;28;20026;-73
2021/03/27 04:59:22;;;;;;;1.35;0.70;;;7.20;99.90;;;;;;5032075;28;20021;-72
2021/03/27 05:01:56;;;;;;;1.48;0.80;;;7.00;99.90;;;;;;5017225;28;20021;-71
2021/03/27 05:04:31;;;;;;;3.05;0.80;;;7.00;99.90;;;;;;5019510;28;20033;-71
2021/03/27 05:07:26;;;;;;;1.50;0.90;;;6.90;99.90;;;;;;5033958;28;20017;-71
2021/03/27 05:10:08;;;;;;;0.80;0.80;;;6.90;99.90;;;;;;5020849;28;20461;-70
2021/03/27 05:12:46;;;;;;;1.42;0.85;;;6.90;99.90;;;;;;5032673;28;20021;-71
2021/03/27 05:15:23;;;;;;;1.80;0.88;;;6.80;99.90;;;;;;5031810;28;20092;-70
2021/03/27 05:18:11;;;;;;;0.60;0.50;;;6.80;99.90;;;;;;5032307;28;20022;-71
2021/03/27 05:20:41;;;;;;;0.70;0.70;;;6.90;99.90;;;;;;5031303;28;20037;-71
2021/03/27 05:23:25;;;;;;;0.73;0.70;;;6.80;99.90;;;;;;5032466;28;20033;-71
2021/03/27 05:26:11;;;;;;;0.90;0.63;;;6.90;99.90;;;;;;5035528;28;20108;-70
2021/03/27 05:29:10;;;;;;;0.85;0.75;;;6.90;99.90;;;;;;5033183;28;20053;-72
2021/03/27 05:32:15;;;;;;;0.80;0.73;;;6.80;99.90;;;;;;5035345;28;20455;-71
2021/03/27 05:34:52;;;;;;;2.53;0.60;;;6.80;99.90;;;;;;5033321;28;20033;-70
2021/03/27 05:37:55;;;;;;;0.82;0.70;;;6.80;99.90;;;;;;5032611;28;20025;-71
2021/03/27 05:40:32;;;;;;;;;;;6.80;99.90;;;;;;5034316;28;20085;-71
2021/03/27 05:43:29;;;;;;;1.02;0.80;;;6.70;99.90;;;;;;5025115;28;20003;-73
2021/03/27 05:46:32;;;;;;;1.48;0.77;;;6.70;99.90;;;;;;5025771;28;20388;-73
2021/03/27 05:49:38;;;;;;;1.27;0.80;;;6.70;99.90;;;;;;5021599;28;20105;-73
2021/03/27 05:52:22;;;;;;;0.68;0.68;;;6.60;99.90;;;;;;5003979;28;20473;-73
2021/03/27 05:55:28;;;;;;;1.95;0.50;;;6.50;99.90;;;;;;5025046;28;20048;-73
2021/03/27 05:58:08;;;;;;;1.48;0.77;;;6.50;99.90;;;;;;5027629;28;20021;-73
2021/03/27 06:00:54;;;;;;;2.33;0.70;;;6.50;99.90;;;;;;5036912;28;20075;-73
2021/03/27 06:03:27;;;;;;;1.17;0.80;;;6.50;99.90;;;;;;5047097;28;20452;-74
2021/03/27 06:06:29;;;;;;;1.35;0.82;;;6.60;99.90;;;;;;5028990;28;20032;-72
2021/03/27 06:09:14;;;;;;;1.40;0.80;;;6.50;99.90;;;;;;5030328;28;20093;-73
2021/03/27 06:11:52;;;;;;;1.10;0.63;;;6.50;99.90;;;;;;5046123;28;20026;-74
2021/03/27 06:14:56;;;;;;;0.70;0.70;;;6.50;99.90;;;;;;5026559;28;20059;-74
2021/03/27 06:17:42;;;;;;;0.60;0.60;;;6.60;99.90;;;;;;5028060;28;20018;-74
2021/03/27 06:20:17;;;;;;;1.15;0.77;;;6.70;99.90;;;;;;5010995;28;20037;-74
2021/03/27 06:22:56;;;;;;;1.02;0.77;;;6.60;99.90;;;;;;5034354;28;20022;-74
2021/03/27 06:25:28;;;;;;;1.13;0.90;;;6.60;99.90;;;;;;5027149;28;20026;-73
2021/03/27 06:28:20;;;;;;;2.50;1.08;;;6.70;99.90;;;;;;5028094;28;20092;-73
2021/03/27 06:30:54;;;;;;;1.15;0.73;;;6.80;99.90;;;;;;5034129;28;20032;-75
2021/03/27 06:33:48;;;;;;;1.75;0.98;;;6.90;99.90;;;;;;5028613;28;20036;-74
2021/03/27 06:36:29;;;;;;;0.85;0.80;;;7.10;99.90;;;;;;5034450;28;20032;-72
2021/03/27 06:39:24;;;;;;;10.77;2.30;;;7.10;99.90;;;;;;5029120;28;20033;-73
2021/03/27 06:42:08;;;;;;;1.27;0.80;;;7.20;99.90;;;;;;5014082;28;20032;-74
2021/03/27 06:45:12;;;;;;;0.68;0.68;;;7.30;99.90;;;;;;5013002;28;20084;-74
2021/03/27 06:48:00;;;;;;;1.58;0.70;;;7.30;99.90;;;;;;5031426;28;20025;-73
2021/03/27 06:51:14;;;;;;;1.70;0.70;;;7.00;99.90;;;;;;5025072;28;20173;-73
2021/03/27 06:54:29;;;;;;;2.80;0.73;;;7.00;99.90;;;;;;5006282;28;20030;-74
2021/03/27 06:57:17;;;;;;;4.05;0.95;;;7.10;99.90;;;;;;5030713;28;20025;-75
2021/03/27 07:00:20;;;;;;;2.67;0.88;;;7.20;99.90;;;;;;5044742;28;20053;-73
2021/03/27 07:03:14;;;;;;;2.03;0.52;;;7.30;99.90;;;;;;5013466;28;20097;-74
2021/03/27 07:06:08;;;;;;;1.70;0.93;;;7.30;99.90;;;;;;5029009;28;20038;-71
2021/03/27 07:08:46;;;;;;;5.03;0.77;;;7.20;99.90;;;;;;5031098;28;20099;-74
2021/03/27 07:11:28;;;;;;;4.07;0.90;;;7.20;99.90;;;;;;5048296;28;20045;-72
2021/03/27 07:14:38;;;;;;;3.80;1.00;;;7.20;99.90;;;;;;5047118;28;20108;-73
2021/03/27 07:17:30;;;;;;;0.60;0.60;;;7.30;99.90;;;;;;5030239;28;20021;-72
2021/03/27 07:19:59;;;;;;;;;;;7.40;99.90;;;;;;5029995;28;20049;-73
2021/03/27 07:22:42;;;;;;;2.42;0.50;;;7.30;99.90;;;;;;5031333;28;20292;-74
2021/03/27 07:25:37;;;;;;;3.22;0.90;;;7.00;99.90;;;;;;5049462;28;20036;-73
2021/03/27 07:28:25;;;;;;;1.33;0.52;;;7.00;99.90;;;;;;5051558;28;20021;-75
2021/03/27 07:31:08;;;;;;;1.83;0.77;;;6.70;99.90;;;;;;5011293;28;20026;-74
2021/03/27 07:33:51;;;;;;;4.57;0.70;;;6.80;99.90;;;;;;5022792;28;20033;-72
2021/03/27 07:36:23;;;;;;;4.15;1.27;;;7.10;99.90;;;;;;5034860;28;20077;-72
2021/03/27 07:39:32;;;;;;;2.15;0.82;;;7.30;99.90;;;;;;5003389;28;20105;-72
2021/03/27 07:42:33;;;;;;;4.25;0.85;;;7.50;99.90;;;;;;5005105;28;20041;-72
2021/03/27 07:45:31;;;;;;;1.08;0.75;;;7.70;99.90;;;;;;5034639;28;20047;-72
2021/03/27 07:48:09;;;;;;;1.52;0.60;;;7.80;99.90;;;;;;5003912;28;20097;-74
2021/03/27 07:50:56;;;;;;;2.63;0.70;;;7.80;99.90;;;;;;5025304;28;20091;-73
2021/03/27 07:53:43;;;;;;;3.22;0.70;;;7.90;99.90;;;;;;5029717;28;20044;-72
2021/03/27 07:56:56;;;;;;;2.50;0.70;;;8.00;99.90;;;;;;5047444;28;20063;-72
2021/03/27 08:00:00;;;;;;;2.20;0.68;;;8.10;99.90;;;;;;5027813;28;20091;-72
2021/03/27 08:02:49;;;;;;;1.55;0.70;;;8.00;99.90;;;;;;5020771;28;20060;-71
2021/03/27 08:05:18;;;;;;;1.88;0.60;;;8.10;99.90;;;;;;5031849;28;20025;-71
2021/03/27 08:08:07;;;;;;;1.92;0.60;;;8.40;99.90;;;;;;5032441;28;20096;-71
2021/03/27 08:10:53;;;;;;;1.17;0.60;;;8.50;99.90;;;;;;5023746;28;20489;-71
2021/03/27 08:13:33;;;;;;;1.33;0.57;;;8.80;99.90;;;;;;5011907;28;20077;-71
2021/03/27 08:16:15;;;;;;;2.33;0.50;;;8.80;99.90;;;;;;5011477;28;20029;-71
2021/03/27 08:19:18;;;;;;;4.57;0.60;;;9.10;99.90;;;;;;5012441;28;20026;-71
2021/03/27 08:22:09;;;;;;;4.32;0.57;;;9.50;99.90;;;;;;4942022;28;20123;-71
2021/03/27 08:24:44;;;;;;;0.98;0.55;;;9.60;99.90;;;;;;5019508;28;20112;-71
2021/03/27 08:27:44;;;;;;;1.05;0.60;;;9.30;99.90;;;;;;5031650;28;20093;-71
2021/03/27 08:30:34;;;;;;;2.08;0.60;;;9.60;99.90;;;;;;5032142;28;20042;-70
2021/03/27 08:33:27;;;;;;;3.63;0.80;;;10.00;99.90;;;;;;5030982;28;20030;-71
2021/03/27 08:36:17;;;;;;;2.70;0.50;;;9.90;99.90;;;;;;5031864;28;20028;-71
2021/03/27 08:39:17;;;;;;;0.70;0.60;;;9.60;99.90;;;;;;5032313;28;20033;-71
2021/03/27 08:42:16;;;;;;;2.40;0.50;;;9.60;99.90;;;;;;5051650;28;20495;-71
2021/03/27 08:45:17;;;;;;;1.30;0.57;;;9.80;99.90;;;;;;5034790;28;20055;-69
2021/03/27 08:48:20;;;;;;;1.48;0.90;;;9.40;99.90;;;;;;5051326;28;20029;-71
2021/03/27 08:50:54;;;;;;;1.77;0.50;;;10.10;99.90;;;;;;5035894;28;20475;-70
2021/03/27 08:53:50;;;;;;;1.20;0.40;;;10.40;99.90;;;;;;5030674;28;20029;-71
2021/03/27 08:56:34;;;;;;;1.35;0.50;;;10.70;99.90;;;;;;5034061;28;20017;-72
2021/03/27 08:59:24;;;;;;;0.63;0.30;;;11.00;99.90;;;;;;5033455;28;20033;-75
2021/03/27 09:02:17;;;;;;;1.00;0.55;;;11.30;99.90;;;;;;5033553;28;20017;-73
2021/03/27 09:04:43;;;;;;;1.30;0.55;;;11.80;99.90;;;;;;5015029;28;20078;-72
2021/03/27 09:07:18;;;;;;;3.53;0.60;;;11.60;98.30;;;;;;5032097;28;20053;-74
2021/03/27 09:09:58;;;;;;;3.20;0.40;;;11.90;98.70;;;;;;5031922;28;20126;-74
2021/03/27 09:12:45;;;;;;;4.20;0.60;;;12.40;97.00;;;;;;5014230;28;20380;-74
2021/03/27 09:15:30;;;;;;;1.05;0.40;;;11.90;95.60;;;;;;5031596;28;20028;-73
2021/03/27 09:17:55;;;;;;;1.98;0.43;;;11.50;96.20;;;;;;5031673;28;20155;-73
2021/03/27 09:20:26;;;;;;;2.80;0.60;;;11.00;95.90;;;;;;5030893;28;20117;-72
2021/03/27 09:23:10;;;;;;;0.90;0.47;;;10.00;96.40;;;;;;5013132;28;20654;-73
2021/03/27 09:26:14;;;;;;;2.38;0.70;;;9.70;98.40;;;;;;5032314;28;20045;-73
2021/03/27 09:28:46;;;;;;;4.53;0.82;;;9.60;98.90;;;;;;5034301;28;20025;-72
2021/03/27 09:31:38;;;;;;;2.63;0.93;;;9.80;99.50;;;;;;5018268;28;20025;-72
2021/03/27 09:34:18;;;;;;;2.17;0.50;;;9.70;99.00;;;;;;5034566;28;20392;-74
2021/03/27 09:37:09;;;;;;;4.68;0.80;;;9.50;99.00;;;;;;5038718;28;20028;-72
2021/03/27 09:40:02;;;;;;;4.75;0.80;;;10.70;99.50;;;;;;5056123;28;20110;-73
2021/03/27 09:43:12;;;;;;;1.08;0.60;;;12.40;96.20;;;;;;5035357;28;20380;-73
2021/03/27 09:45:52;;;;;;;1.77;0.70;;;12.30;95.60;;;;;;5035352;28;20061;-73
2021/03/27 09:48:29;;;;;;;1.65;0.57;;;13.40;94.10;;;;;;5035239;28;20028;-74
2021/03/27 09:51:10;;;;;;;1.38;0.60;;;13.10;93.70;;;;;;5035625;28;20045;-73
2021/03/27 09:54:27;;;;;;;0.93;0.40;;;12.50;91.80;;;;;;5016134;28;20025;-73
2021/03/27 09:57:11;;;;;;;0.90;0.55;;;12.20;93.30;;;;;;4991417;28;20036;-73
2021/03/27 09:59:44;;;;;;;1.27;0.80;;;11.50;93.60;;;;;;5035644;28;20030;-73
2021/03/27 10:02:17;;;;;;;0.85;0.60;;;11.90;94.20;;;;;;5036619;28;20018;-74
2021/03/27 10:04:57;;;;;;;7.28;3.53;;;12.30;92.80;;;;;;5035969;28;20484;-75
2021/03/27 10:07:28;;;;;;;0.75;0.60;;;13.10;92.10;;;;;;5038148;28;20033;-74
2021/03/27 10:10:15;;;;;;;1.20;0.40;;;13.50;91.20;;;;;;5037356;28;20104;-75
2021/03/27 10:12:44;;;;;;;2.10;0.50;;;12.60;91.00;;;;;;5039706;28;20031;-76
2021/03/27 10:15:15;;;;;;;3.15;0.68;;;12.70;90.10;;;;;;5037882;28;20021;-74
2021/03/27 10:17:48;;;;;;;0.75;0.40;;;13.70;90.30;;;;;;5038475;28;20021;-74
2021/03/27 10:20:32;;;;;;;1.73;0.50;;;14.50;86.20;;;;;;5021122;28;20029;-75
2021/03/27 10:23:10;;;;;;;1.58;0.80;;;13.50;83.00;;;;;;5020194;28;20026;-74
2021/03/27 10:25:41;;;;;;;1.02;0.38;;;13.40;85.20;;;;;;5038134;28;20022;-74
2021/03/27 10:28:23;;;;;;;0.70;0.60;;;13.20;85.50;;;;;;5035729;28;20037;-74
2021/03/27 10:30:58;;;;;;;1.77;0.55;;;13.30;87.80;;;;;;5018268;28;20026;-75
2021/03/27 10:34:01;;;;;;;1.63;0.77;;;13.80;86.10;;;;;;5034365;28;20515;-74
2021/03/27 10:36:58;;;;;;;2.15;0.80;;;13.10;80.30;;;;;;4997934;28;20037;-74
2021/03/27 10:39:59;;;;;;;2.50;0.60;;;12.10;86.10;;;;;;5014908;28;20025;-74
2021/03/27 10:42:48;;;;;;;1.85;0.60;;;12.50;85.70;;;;;;5017935;28;20022;-75
2021/03/27 10:45:34;;;;;;;3.08;0.80;;;12.80;83.20;;;;;;5017499;28;20026;-74
2021/03/27 10:48:05;;;;;;;3.15;0.85;;;13.40;81.90;;;;;;5007715;28;20105;-73
2021/03/27 10:51:00;;;;;;;1.00;0.53;;;13.20;80.90;;;;;;5008801;28;20018;-75
2021/03/27 10:54:01;;;;;;;0.88;0.50;;;12.90;79.40;;;;;;5010796;28;20045;-74
2021/03/27 10:56:58;;;;;;;5.78;1.17;;;13.10;83.60;;;;;;5014331;28;20654;-72
2021/03/27 10:59:48;;;;;;;7.47;0.93;;;12.80;80.30;;;;;;5012417;28;20026;-75
2021/03/27 11:02:42;;;;;;;3.13;0.70;;;13.50;99.90;;;;;;5013208;28;20025;-73
2021/03/27 11:05:18;;;;;;;1.35;0.80;;;12.50;81.90;;;;;;5016141;28;20032;-73
2021/03/27 11:08:12;;;;;;;1.70;0.57;;;12.80;86.80;;;;;;5023520;28;20029;-72
2021/03/27 11:10:59;;;;;;;1.33;0.50;;;13.10;80.00;;;;;;5028153;28;20540;-69
2021/03/27 11:13:40;;;;;;;1.33;0.40;;;14.00;90.50;;;;;;5033182;28;20057;-73
2021/03/27 11:16:33;;;;;;;1.10;0.40;;;16.30;77.50;;;;;;5019373;28;20708;-72
2021/03/27 11:19:36;;;;;;;1.95;0.77;;;13.90;68.00;;;;;;5023908;28;20132;-72
2021/03/27 11:22:52;;;;;;;1.65;0.70;;;12.30;76.90;;;;;;5029212;28;20025;-76
2021/03/27 11:25:30;;;;;;;1.05;0.73;;;12.70;77.00;;;;;;5007509;28;20037;-73
2021/03/27 11:28:01;;;;;;;1.55;0.55;;;14.30;77.90;;;;;;5021244;28;20407;-71
2021/03/27 11:30:48;;;;;;;1.50;0.63;;;14.60;70.90;;;;;;5032593;28;20033;-71
2021/03/27 11:33:31;;;;;;;2.33;0.57;;;14.90;72.20;;;;;;5032343;28;20080;-73
2021/03/27 11:36:30;;;;;;;2.88;0.68;;;15.20;66.90;;;;;;5023335;28;20463;-72
2021/03/27 11:39:18;;;;;;;2.15;0.43;;;16.30;67.30;;;;;;5026410;28;20021;-70
2021/03/27 11:41:49;;;;;;;1.77;0.50;;;15.60;65.40;;;;;;5029277;28;20057;-72
2021/03/27 11:44:50;;;;;;;1.88;0.70;;;16.10;66.10;;;;;;5028287;28;20104;-73
2021/03/27 11:47:36;;;;;;;2.97;0.52;;;16.30;63.90;;;;;;5030233;28;20071;-72
2021/03/27 11:50:36;;;;;;;2.60;0.68;;;17.00;60.70;;;;;;5019096;28;20022;-72
2021/03/27 11:53:30;;;;;;;0.60;0.45;;;16.80;61.90;;;;;;5027977;28;20108;-73
2021/03/27 11:56:27;;;;;;;1.75;0.52;;;17.10;62.10;;;;;;5026975;28;20022;-72
2021/03/27 12:02:13;;;;;;;2.10;0.50;;;17.90;57.70;;;;;;5025271;28;20053;-72
2021/03/27 12:05:04;;;;;;;1.80;0.57;;;18.30;57.20;;;;;;5013785;28;20048;-73
2021/03/27 12:07:58;;;;;;;0.57;0.35;;;18.60;56.10;;;;;;5029449;28;20013;-74
2021/03/27 12:10:37;;;;;;;1.92;0.60;;;17.80;54.80;;;;;;5037677;28;20018;-73
2021/03/27 12:13:09;;;;;;;1.67;0.80;;;17.80;55.50;;;;;;5034835;28;20026;-73
2021/03/27 12:15:42;;;;;;;2.08;0.60;;;18.70;53.20;;;;;;5033501;28;20828;-73
2021/03/27 12:18:45;;;;;;;1.52;0.60;;;18.00;52.90;;;;;;5031395;28;20029;-70
2021/03/27 12:21:17;;;;;;;;;;;14.70;55.90;;;;;;5020112;28;20079;-73
2021/03/27 12:23:55;;;;;;;2.40;0.68;;;13.40;60.80;;;;;;5040755;28;19908;-72
2021/03/27 12:26:33;;;;;;;2.38;0.70;;;13.80;62.30;;;;;;5020291;28;20065;-73
2021/03/27 12:29:16;;;;;;;2.55;0.52;;;15.70;60.00;;;;;;5029152;28;20144;-74
2021/03/27 12:32:25;;;;;;;2.50;0.93;;;17.10;56.50;;;;;;5016623;28;20033;-74
2021/03/27 12:35:08;;;;;;;1.10;0.65;;;16.40;55.30;;;;;;4944692;29;20049;-72
2021/03/27 12:38:06;;;;;;;0.90;0.50;;;14.60;57.40;;;;;;5017581;28;20057;-73
2021/03/27 12:41:10;;;;;;;1.65;0.65;;;15.40;56.30;;;;;;4987724;28;20041;-72
2021/03/27 12:43:47;;;;;;;4.97;0.60;;;17.10;52.80;;;;;;4987978;28;20030;-73
2021/03/27 12:46:34;;;;;;;2.05;0.63;;;16.40;55.40;;;;;;5023983;28;20025;-72
2021/03/27 12:49:17;;;;;;;6.00;0.70;;;18.40;53.20;;;;;;5025616;28;20025;-74
2021/03/27 12:52:13;;;;;;;0.95;0.63;;;16.70;54.60;;;;;;5010805;28;20026;-74
2021/03/27 12:54:41;;;;;;;4.03;0.73;;;16.80;52.40;;;;;;5028180;28;20022;-74
2021/03/27 12:57:25;;;;;;;3.00;0.60;;;14.40;54.70;;;;;;5028467;28;20021;-74
2021/03/27 13:00:11;;;;;;;2.42;1.35;;;14.30;57.60;;;;;;5024789;28;20049;-72
2021/03/27 13:02:58;;;;;;;2.28;0.68;;;13.60;61.40;;;;;;4999631;28;20412;-71
2021/03/27 13:05:34;;;;;;;4.45;0.70;;;14.00;59.10;;;;;;5010238;28;20403;-71
2021/03/27 13:08:08;;;;;;;0.77;0.40;;;14.80;59.30;;;;;;5021702;28;20081;-71
2021/03/27 13:10:46;;;;;;;3.03;0.90;;;14.70;56.30;;;;;;5016035;28;20021;-72
2021/03/27 13:13:41;;;;;;;6.07;0.88;;;13.90;59.50;;;;;;5017330;28;20799;-72
2021/03/27 13:16:26;;;;;;;1.88;0.90;;;14.40;59.70;;;;;;4976934;28;20033;-73
2021/03/27 13:18:55;;;;;;;2.45;0.80;;;13.90;58.20;;;;;;5003239;28;20132;-71
2021/03/27 13:21:38;;;;;;;1.70;0.60;;;13.60;59.40;;;;;;5016931;28;20022;-72
2021/03/27 13:24:19;;;;;;;3.38;0.60;;;13.50;60.50;;;;;;5018389;28;20026;-70
2021/03/27 13:26:46;;;;;;;1.65;1.05;;;13.10;60.60;;;;;;5020022;28;20039;-70
2021/03/27 13:29:35;;;;;;;2.55;0.68;;;13.00;61.50;;;;;;5027630;28;20025;-71
2021/03/27 13:32:41;;;;;;;2.33;1.05;;;12.60;61.20;;;;;;5022573;28;20033;-70
2021/03/27 13:35:18;;;;;;;1.05;0.65;;;12.40;64.10;;;;;;4930281;29;20058;-71
2021/03/27 13:37:50;;;;;;;2.88;0.60;;;12.40;63.50;;;;;;4910880;29;20031;-73
2021/03/27 13:40:19;;;;;;;2.17;1.13;;;12.20;64.60;;;;;;4985078;28;20400;-73
2021/03/27 13:42:55;;;;;;;2.15;0.80;;;12.30;64.70;;;;;;5023180;28;20021;-77
2021/03/27 13:45:27;;;;;;;2.92;0.80;;;13.10;66.00;;;;;;5028421;28;20056;-78
2021/03/27 13:48:50;;;;;;;2.05;1.05;;;14.80;61.10;;;;;;5027592;28;20033;-77
2021/03/27 13:51:22;;;;;;;;;;;14.80;58.90;;;;;;5012230;28;20023;-78
2021/03/27 13:54:12;;;;;;;2.65;0.75;;;13.80;58.80;;;;;;5022869;28;20387;-80
2021/03/27 13:56:52;;;;;;;4.72;0.98;;;13.40;60.20;;;;;;5027951;28;20168;-76
2021/03/27 13:59:52;;;;;;;2.72;0.80;;;12.70;62.80;;;;;;5020318;28;20022;-78
2021/03/27 14:02:48;;;;;;;3.50;0.88;;;13.00;63.50;;;;;;5008004;28;20018;-79
2021/03/27 14:05:43;;;;;;;5.97;0.95;;;13.80;62.30;;;;;;5020415;28;20091;-77
2021/03/27 14:08:33;;;;;;;4.68;0.90;;;14.50;59.70;;;;;;5027599;28;20124;-76
2021/03/27 14:11:04;;;;;;;4.15;0.98;;;14.60;58.30;;;;;;5027664;28;20014;-76
2021/03/27 14:13:50;;;;;;;2.20;0.88;;;14.30;58.90;;;;;;5008549;28;20023;-76
2021/03/27 14:16:32;;;;;;;3.38;0.70;;;12.50;64.10;;;;;;5022910;28;20037;-77
2021/03/27 14:19:24;;;;;;;2.38;0.75;;;12.40;63.60;;;;;;5031238;28;20029;-78
2021/03/27 14:22:13;;;;;;;2.78;1.00;;;12.50;64.10;;;;;;5014910;28;20034;-77
2021/03/27 14:25:07;;;;;;;2.53;0.75;;;14.10;61.50;;;;;;5021292;28;20079;-78
2021/03/27 14:27:47;;;;;;;4.55;0.85;;;14.80;58.00;;;;;;5032797;28;20488;-77
2021/03/27 14:30:22;;;;;;;2.83;0.93;;;15.50;59.60;;;;;;5033346;28;20040;-77